createdAt,value
2019-06-08T00:00:15.249Z,72.49
2019-06-08T00:02:44.244Z,72.62
2019-06-08T00:05:14.625Z,72.65
2019-06-08T00:07:43.653Z,71.37
2019-06-08T00:10:12.887Z,71.17
2019-06-08T00:12:41.683Z,70.93
2019-06-08T00:15:11.246Z,70.74
2019-06-08T00:17:40.052Z,71.45
2019-06-08T00:20:10.564Z,71.50
2019-06-08T00:22:39.414Z,71.42
2019-06-08T00:25:08.683Z,71.21
2019-06-08T00:27:37.507Z,71.68
2019-06-08T00:30:11.443Z,72.16
2019-06-08T00:32:39.447Z,71.56
2019-06-08T00:35:08.251Z,72.01
2019-06-08T00:37:37.083Z,71.34
2019-06-08T00:40:08.212Z,72.02
2019-06-08T00:42:37.047Z,71.05
2019-06-08T00:45:09.166Z,71.05
2019-06-08T00:47:47.386Z,71.04
2019-06-08T00:50:09.019Z,71.59
2019-06-08T00:52:37.846Z,72.42
2019-06-08T00:55:07.083Z,71.22
2019-06-08T00:57:35.965Z,72.04
2019-06-08T01:00:10.781Z,72.08
2019-06-08T01:02:37.323Z,72.92
2019-06-08T01:05:07.394Z,73.37
2019-06-08T01:07:36.212Z,72.89
2019-06-08T01:10:08.055Z,72.20
2019-06-08T01:12:36.934Z,72.22
2019-06-08T01:15:09.756Z,72.85
2019-06-08T01:17:38.819Z,72.51
2019-06-08T01:20:09.165Z,72.33
2019-06-08T01:22:37.971Z,72.22
2019-06-08T01:25:07.283Z,71.41
2019-06-08T01:27:36.165Z,70.98
2019-06-08T01:30:07.404Z,71.57
2019-06-08T01:32:36.252Z,74.10
2019-06-08T01:35:05.979Z,73.91
2019-06-08T01:37:34.843Z,74.39
2019-06-08T01:40:05.173Z,74.86
2019-06-08T01:42:34.134Z,74.52
2019-06-08T01:45:03.724Z,73.71
2019-06-08T01:47:32.731Z,73.36
2019-06-08T01:50:01.565Z,73.43
2019-06-08T01:52:30.916Z,73.34
2019-06-08T01:54:59.844Z,72.42
2019-06-08T01:57:29.329Z,72.28
2019-06-08T01:59:58.325Z,72.56
2019-06-08T02:02:27.874Z,73.80
2019-06-08T02:04:56.844Z,73.73
2019-06-08T02:07:26.335Z,74.43
2019-06-08T02:09:55.283Z,74.56
2019-06-08T02:12:24.779Z,73.52
2019-06-08T02:14:53.763Z,72.75
2019-06-08T02:17:22.610Z,73.21
2019-06-08T02:19:51.523Z,73.49
2019-06-08T02:22:20.323Z,73.69
2019-06-08T02:24:49.093Z,74.92
2019-06-08T02:27:17.965Z,75.42
2019-06-08T02:29:46.763Z,76.02
2019-06-08T02:32:15.573Z,75.24
2019-06-08T02:34:44.407Z,75.41
2019-06-08T02:37:13.251Z,75.82
2019-06-08T02:39:42.206Z,75.72
2019-06-08T02:42:11.008Z,76.78
2019-06-08T02:44:40.597Z,77.51
2019-06-08T02:47:09.654Z,77.56
2019-06-08T02:49:39.798Z,74.17
2019-06-08T02:52:08.774Z,74.83
2019-06-08T02:54:39.450Z,74.73
2019-06-08T02:57:08.445Z,76.26
2019-06-08T02:59:40.599Z,77.37
2019-06-08T03:02:08.985Z,76.43
2019-06-08T03:04:41.105Z,74.97
2019-06-08T03:07:10.934Z,74.91
2019-06-08T03:09:41.185Z,74.21
2019-06-08T03:12:10.134Z,74.03
2019-06-08T03:14:42.144Z,74.11
2019-06-08T03:17:11.098Z,74.31
2019-06-08T03:19:40.406Z,75.25
2019-06-08T03:22:11.119Z,76.19
2019-06-08T03:24:41.508Z,76.87
2019-06-08T03:27:10.526Z,76.85
2019-06-08T03:29:41.296Z,77.56
2019-06-08T03:32:09.833Z,76.57
2019-06-08T03:34:46.075Z,76.06
2019-06-08T03:37:09.123Z,76.21
2019-06-08T03:39:38.946Z,77.01
2019-06-08T03:42:08.045Z,77.12
2019-06-08T03:44:38.431Z,76.96
2019-06-08T03:47:07.444Z,76.92
2019-06-08T03:49:42.854Z,76.95
2019-06-08T03:52:06.734Z,76.88
2019-06-08T03:54:36.164Z,77.04
2019-06-08T03:57:06.086Z,77.12
2019-06-08T03:59:36.067Z,77.11
2019-06-08T04:02:05.131Z,77.06
2019-06-08T04:04:33.925Z,77.04
2019-06-08T04:07:02.701Z,77.02
2019-06-08T04:09:31.631Z,76.95
2019-06-08T04:12:00.483Z,77.08
2019-06-08T04:14:29.244Z,76.51
2019-06-08T04:16:58.046Z,76.17
2019-06-08T04:19:26.926Z,75.96
2019-06-08T04:21:55.767Z,75.86
2019-06-08T04:24:24.576Z,76.49
2019-06-08T04:26:53.419Z,76.68
2019-06-08T04:29:22.244Z,75.83
2019-06-08T04:31:51.092Z,74.92
2019-06-08T04:34:19.889Z,73.55
2019-06-08T04:36:50.426Z,73.39
2019-06-08T04:39:19.451Z,73.56
2019-06-08T04:41:48.282Z,73.70
2019-06-08T04:44:17.084Z,74.19
2019-06-08T04:46:47.870Z,73.56
2019-06-08T04:49:16.325Z,71.96
2019-06-08T04:51:46.817Z,71.85
2019-06-08T04:54:15.655Z,70.86
2019-06-08T04:56:44.949Z,70.97
2019-06-08T04:59:13.925Z,72.18
2019-06-08T05:01:43.096Z,71.98
2019-06-08T05:04:12.056Z,71.28
2019-06-08T05:06:41.073Z,71.39
2019-06-08T05:09:09.925Z,71.02
2019-06-08T05:11:39.060Z,71.19
2019-06-08T05:14:08.084Z,71.45
2019-06-08T05:16:36.860Z,70.82
2019-06-08T05:19:05.689Z,70.80
2019-06-08T05:21:34.572Z,70.81
2019-06-08T05:24:03.376Z,71.28
2019-06-08T05:26:32.168Z,73.24
2019-06-08T05:29:01.046Z,72.40
2019-06-08T05:31:29.846Z,71.96
2019-06-08T05:33:58.648Z,73.32
2019-06-08T05:36:27.444Z,71.56
2019-06-08T05:38:56.291Z,70.82
2019-06-08T05:41:25.203Z,70.26
2019-06-08T05:43:54.006Z,71.66
2019-06-08T05:46:22.934Z,70.81
2019-06-08T05:48:51.726Z,71.33
2019-06-08T05:51:20.527Z,70.76
2019-06-08T05:53:50.174Z,69.46
2019-06-08T05:56:19.244Z,66.23
2019-06-08T05:58:48.323Z,67.72
2019-06-08T06:01:17.091Z,67.62
2019-06-08T06:03:46.565Z,67.26
2019-06-08T06:06:15.522Z,67.64
2019-06-08T06:08:44.652Z,65.98
2019-06-08T06:11:13.523Z,65.07
2019-06-08T06:13:42.718Z,65.55
2019-06-08T06:16:11.643Z,65.20
2019-06-08T06:18:40.982Z,64.84
2019-06-08T06:21:12.162Z,64.21
2019-06-08T06:23:41.144Z,64.92
2019-06-08T06:26:10.247Z,62.74
2019-06-08T06:28:39.046Z,63.79
2019-06-08T06:31:07.804Z,63.16
2019-06-08T06:33:36.698Z,63.66
2019-06-08T06:36:05.843Z,64.20
2019-06-08T06:38:34.646Z,64.75
2019-06-08T06:41:03.422Z,64.70
2019-06-08T06:43:32.363Z,64.64
2019-06-08T06:46:01.172Z,64.74
2019-06-08T06:48:29.966Z,65.23
2019-06-08T06:50:58.884Z,64.68
2019-06-08T06:53:27.643Z,65.03
2019-06-08T06:55:56.404Z,64.44
2019-06-08T06:58:25.214Z,64.65
2019-06-08T07:00:54.005Z,64.93
2019-06-08T07:03:22.775Z,64.09
2019-06-08T07:05:52.008Z,64.49
2019-06-08T07:08:21.100Z,65.13
2019-06-08T07:10:50.842Z,63.68
2019-06-08T07:13:19.805Z,64.50
2019-06-08T07:15:52.675Z,63.56
2019-06-08T07:18:19.130Z,64.11
2019-06-08T07:20:48.172Z,63.28
2019-06-08T07:23:17.044Z,64.06
2019-06-08T07:25:46.269Z,63.40
2019-06-08T07:28:15.283Z,62.71
2019-06-08T07:30:44.137Z,63.31
2019-06-08T07:33:12.937Z,61.67
2019-06-08T07:35:41.684Z,62.75
2019-06-08T07:38:10.479Z,61.75
2019-06-08T07:40:39.325Z,61.68
2019-06-08T07:43:08.085Z,61.89
2019-06-08T07:45:36.966Z,60.99
2019-06-08T07:48:05.885Z,60.87
2019-06-08T07:50:34.684Z,59.77
2019-06-08T07:53:03.580Z,60.18
2019-06-08T07:55:32.377Z,58.81
2019-06-08T07:58:01.283Z,57.94
2019-06-08T08:00:30.123Z,58.46
2019-06-08T08:02:58.934Z,58.18
2019-06-08T08:05:27.767Z,57.33
2019-06-08T08:07:56.892Z,57.90
2019-06-08T08:10:25.851Z,58.24
2019-06-08T08:12:56.842Z,57.63
2019-06-08T08:15:25.804Z,57.91
2019-06-08T08:17:55.506Z,56.61
2019-06-08T08:20:24.364Z,56.51
2019-06-08T08:22:57.604Z,56.28
2019-06-08T08:25:24.212Z,56.65
2019-06-08T08:27:53.487Z,55.70
2019-06-08T08:30:24.244Z,56.15
2019-06-08T08:32:54.584Z,55.90
2019-06-08T08:35:23.642Z,54.40
2019-06-08T08:37:56.298Z,54.27
2019-06-08T08:40:22.923Z,54.69
2019-06-08T08:42:52.359Z,53.30
2019-06-08T08:45:22.723Z,53.90
2019-06-08T08:47:55.984Z,53.96
2019-06-08T08:50:22.122Z,53.68
2019-06-08T08:52:52.273Z,52.70
2019-06-08T08:55:21.241Z,52.21
2019-06-08T08:57:50.719Z,52.45
2019-06-08T09:00:21.922Z,52.18
2019-06-08T09:03:10.912Z,51.42
2019-06-08T09:05:21.363Z,50.68
2019-06-08T09:07:52.031Z,50.74
2019-06-08T09:10:20.765Z,50.63
2019-06-08T09:12:49.485Z,50.62
2019-06-08T09:15:19.273Z,51.40
2019-06-08T09:17:48.404Z,50.10
2019-06-08T09:20:19.250Z,49.74
2019-06-08T09:22:56.571Z,50.22
2019-06-08T09:25:19.882Z,49.67
2019-06-08T09:27:48.722Z,49.75
2019-06-08T09:30:18.626Z,48.46
2019-06-08T09:32:47.941Z,49.61
2019-06-08T09:35:18.635Z,49.22
2019-06-08T09:37:48.537Z,50.37
2019-06-08T09:40:17.682Z,50.27
2019-06-08T09:42:46.445Z,48.57
2019-06-08T09:45:18.042Z,48.74
2019-06-08T09:47:47.862Z,48.52
2019-06-08T09:50:18.530Z,48.54
2019-06-08T09:52:48.047Z,48.76
2019-06-08T09:55:18.112Z,48.08
2019-06-08T09:57:48.516Z,47.62
2019-06-08T10:00:21.426Z,48.26
2019-06-08T10:02:48.464Z,49.45
2019-06-08T10:05:18.543Z,50.31
2019-06-08T10:07:48.755Z,50.30
2019-06-08T10:10:18.220Z,50.41
2019-06-08T10:12:48.369Z,49.27
2019-06-08T10:15:17.950Z,48.71
2019-06-08T10:17:47.613Z,47.65
2019-06-08T10:20:18.381Z,47.60
2019-06-08T10:22:50.026Z,47.81
2019-06-08T10:25:18.000Z,47.97
2019-06-08T10:27:46.777Z,46.70
2019-06-08T10:30:15.882Z,47.05
2019-06-08T10:32:44.652Z,45.99
2019-06-08T10:35:20.631Z,46.55
2019-06-08T10:37:47.838Z,46.33
2019-06-08T10:40:18.718Z,46.11
2019-06-08T10:42:48.240Z,46.13
2019-06-08T10:45:18.562Z,46.01
2019-06-08T10:47:48.023Z,45.07
2019-06-08T10:50:19.138Z,44.81
2019-06-08T10:52:48.203Z,43.81
2019-06-08T10:55:18.577Z,44.11
2019-06-08T10:57:47.830Z,44.68
2019-06-08T11:00:23.986Z,43.70
2019-06-08T11:02:53.105Z,43.16
2019-06-08T11:05:21.995Z,41.08
2019-06-08T11:07:50.883Z,42.88
2019-06-08T11:10:19.762Z,42.26
2019-06-08T11:12:48.672Z,42.77
2019-06-08T11:15:17.695Z,40.08
2019-06-08T11:17:46.567Z,39.10
2019-06-08T11:20:15.543Z,38.65
2019-06-08T11:22:44.377Z,38.74
2019-06-08T11:25:15.863Z,38.57
2019-06-08T11:27:43.729Z,38.60
2019-06-08T11:30:20.469Z,38.71
2019-06-08T11:32:43.716Z,39.10
2019-06-08T11:35:12.746Z,38.19
2019-06-08T11:37:41.584Z,37.75
2019-06-08T11:40:12.506Z,37.99
2019-06-08T11:42:41.164Z,39.79
2019-06-08T11:45:12.937Z,41.30
2019-06-08T11:47:41.366Z,41.30
2019-06-08T11:50:13.219Z,40.31
2019-06-08T11:52:41.924Z,40.90
2019-06-08T11:55:12.726Z,40.05
2019-06-08T11:57:42.882Z,39.81
2019-06-08T12:00:23.701Z,40.39
2019-06-08T12:02:45.086Z,40.76
2019-06-08T12:05:14.343Z,41.10
2019-06-08T12:07:43.163Z,41.28
2019-06-08T12:10:12.997Z,41.75
2019-06-08T12:12:42.562Z,41.69
2019-06-08T12:15:13.280Z,41.28
2019-06-08T12:17:41.987Z,40.95
2019-06-08T12:20:15.996Z,41.63
2019-06-08T12:22:41.602Z,42.65
2019-06-08T12:25:10.406Z,43.41
2019-06-08T12:27:40.196Z,42.96
2019-06-08T12:30:17.379Z,43.49
2019-06-08T12:32:39.844Z,43.25
2019-06-08T12:35:10.874Z,43.59
2019-06-08T12:37:39.324Z,42.78
2019-06-08T12:40:11.476Z,41.77
2019-06-08T12:42:38.927Z,42.93
2019-06-08T12:45:09.214Z,42.79
2019-06-08T12:47:38.366Z,42.58
2019-06-08T12:50:09.039Z,42.22
2019-06-08T12:52:39.154Z,42.78
2019-06-08T12:55:14.300Z,42.03
2019-06-08T12:57:39.747Z,43.74
2019-06-08T13:00:10.273Z,45.04
2019-06-08T13:02:39.605Z,44.95
2019-06-08T13:05:13.302Z,44.80
2019-06-08T13:07:39.405Z,46.15
2019-06-08T13:10:08.825Z,46.62
2019-06-08T13:12:40.632Z,46.21
2019-06-08T13:15:10.058Z,46.85
2019-06-08T13:17:39.524Z,47.61
2019-06-08T13:20:22.149Z,47.23
2019-06-08T13:22:49.884Z,48.03
2019-06-08T13:25:31.965Z,48.04
2019-06-08T13:27:49.244Z,46.66
2019-06-08T13:30:25.341Z,46.32
2019-06-08T13:32:49.173Z,46.33
2019-06-08T13:35:20.545Z,43.63
2019-06-08T13:37:48.604Z,43.03
2019-06-08T13:40:20.701Z,42.93
2019-06-08T13:42:51.186Z,42.71
2019-06-08T13:45:21.767Z,41.83
2019-06-08T13:47:50.548Z,41.59
2019-06-08T13:50:22.060Z,41.14
2019-06-08T13:52:50.765Z,42.06
2019-06-08T13:55:36.276Z,43.05
2019-06-08T13:57:50.044Z,43.62
2019-06-08T14:00:23.150Z,44.01
2019-06-08T14:02:51.283Z,43.52
2019-06-08T14:05:27.709Z,44.52
2019-06-08T14:07:53.651Z,44.76
2019-06-08T14:10:40.331Z,45.24
2019-06-08T14:13:09.331Z,46.08
2019-06-08T14:15:38.413Z,46.82
2019-06-08T14:18:08.827Z,46.48
2019-06-08T14:20:38.798Z,47.43
2019-06-08T14:23:09.153Z,47.89
2019-06-08T14:25:49.735Z,48.61
2019-06-08T14:28:08.844Z,48.08
2019-06-08T14:30:37.914Z,47.70
2019-06-08T14:33:08.297Z,48.26
2019-06-08T14:35:37.406Z,47.37
2019-06-08T14:38:06.163Z,47.77
2019-06-08T14:40:37.422Z,48.12
2019-06-08T14:43:05.445Z,49.18
2019-06-08T14:45:34.324Z,48.82
2019-06-08T14:48:03.093Z,49.38
2019-06-08T14:50:31.843Z,49.41
2019-06-08T14:53:00.604Z,49.72
2019-06-08T14:55:33.895Z,50.66
2019-06-08T14:58:00.005Z,51.14
2019-06-08T15:00:29.686Z,50.81
2019-06-08T15:02:59.271Z,50.44
2019-06-08T15:05:31.616Z,50.05
2019-06-08T15:08:00.940Z,49.47
2019-06-08T15:10:31.285Z,49.06
2019-06-08T15:13:00.252Z,50.33
2019-06-08T15:15:32.092Z,49.62
2019-06-08T15:17:59.685Z,49.71
2019-06-08T15:20:28.726Z,49.27
2019-06-08T15:22:58.153Z,49.43
2019-06-08T15:25:29.474Z,49.34
2019-06-08T15:27:58.182Z,49.42
2019-06-08T15:30:30.935Z,48.24
2019-06-08T15:32:58.924Z,47.09
2019-06-08T15:35:27.845Z,46.34
2019-06-08T15:37:58.521Z,46.02
2019-06-08T15:40:27.841Z,45.72
2019-06-08T15:42:58.515Z,45.18
2019-06-08T15:45:30.989Z,43.58
2019-06-08T15:47:58.640Z,43.91
2019-06-08T15:50:28.455Z,43.33
2019-06-08T15:52:59.779Z,43.20
2019-06-08T15:55:31.354Z,42.37
2019-06-08T15:57:58.682Z,42.48
2019-06-08T16:00:30.028Z,42.54
2019-06-08T16:02:58.645Z,43.46
2019-06-08T16:05:27.875Z,43.13
2019-06-08T16:07:56.648Z,44.14
2019-06-08T16:10:26.282Z,44.17
2019-06-08T16:12:55.444Z,43.51
2019-06-08T16:15:24.859Z,43.67
2019-06-08T16:17:53.844Z,43.19
2019-06-08T16:20:22.694Z,43.64
2019-06-08T16:22:51.485Z,43.21
2019-06-08T16:25:20.296Z,43.80
2019-06-08T16:27:49.043Z,42.56
2019-06-08T16:30:18.245Z,42.65
2019-06-08T16:32:47.045Z,42.93
2019-06-08T16:35:16.205Z,43.38
2019-06-08T16:37:45.043Z,43.06
2019-06-08T16:40:14.003Z,42.54
2019-06-08T16:42:42.774Z,42.90
2019-06-08T16:45:11.852Z,43.39
2019-06-08T16:47:43.350Z,42.20
2019-06-08T16:50:24.037Z,42.38
2019-06-08T16:52:42.283Z,42.24
2019-06-08T16:55:11.346Z,41.84
2019-06-08T16:57:41.267Z,42.39
2019-06-08T17:00:30.793Z,41.66
2019-06-08T17:02:41.323Z,43.13
2019-06-08T17:05:10.445Z,42.92
2019-06-08T17:07:39.722Z,43.91
2019-06-08T17:10:09.003Z,43.46
2019-06-08T17:12:39.076Z,44.15
2019-06-08T17:15:08.166Z,44.36
2019-06-08T17:17:38.484Z,44.34
2019-06-08T17:20:07.645Z,44.01
2019-06-08T17:22:36.893Z,45.66
2019-06-08T17:25:08.807Z,46.03
2019-06-08T17:27:38.838Z,47.54
2019-06-08T17:30:09.300Z,48.00
2019-06-08T17:32:40.407Z,48.39
2019-06-08T17:35:09.254Z,48.60
2019-06-08T17:37:38.227Z,49.00
2019-06-08T17:40:08.173Z,49.05
2019-06-08T17:42:37.689Z,49.24
2019-06-08T17:45:08.122Z,49.41
2019-06-08T17:47:36.922Z,49.70
2019-06-08T17:50:09.403Z,49.35
2019-06-08T17:52:38.911Z,49.49
2019-06-08T17:55:08.284Z,49.83
2019-06-08T17:57:44.785Z,49.70
2019-06-08T18:00:09.786Z,50.23
2019-06-08T18:02:41.919Z,50.70
2019-06-08T18:05:10.682Z,51.13
2019-06-08T18:07:41.959Z,51.11
2019-06-08T18:10:10.525Z,51.02
2019-06-08T18:12:42.855Z,50.96
2019-06-08T18:15:10.528Z,50.31
2019-06-08T18:17:41.994Z,50.98
2019-06-08T18:20:13.542Z,51.54
2019-06-08T18:22:44.341Z,50.89
2019-06-08T18:25:14.330Z,50.75
2019-06-08T18:28:01.773Z,50.80
2019-06-08T18:30:18.766Z,50.96
2019-06-08T18:32:48.473Z,50.01
2019-06-08T18:35:18.208Z,50.55
2019-06-08T18:37:48.652Z,52.98
2019-06-08T18:40:19.562Z,54.13
2019-06-08T18:42:49.022Z,54.11
2019-06-08T18:45:18.722Z,55.65
2019-06-08T18:47:48.374Z,54.76
2019-06-08T18:50:17.924Z,55.61
2019-06-08T18:52:49.448Z,56.46
2019-06-08T18:55:18.205Z,56.73
2019-06-08T18:57:49.018Z,57.11
2019-06-08T19:00:21.322Z,56.33
2019-06-08T19:02:54.635Z,56.82
2019-06-08T19:05:21.186Z,56.29
2019-06-08T19:07:52.552Z,56.14
2019-06-08T19:10:33.291Z,56.71
2019-06-08T19:13:02.088Z,57.08
2019-06-08T19:15:39.828Z,57.53
2019-06-08T19:18:08.235Z,58.09
2019-06-08T19:20:42.247Z,58.38
2019-06-08T19:23:09.077Z,58.63
2019-06-08T19:25:41.271Z,59.15
2019-06-08T19:28:08.802Z,59.08
2019-06-08T19:30:40.352Z,59.29
2019-06-08T19:33:08.087Z,59.69
2019-06-08T19:35:37.648Z,60.13
2019-06-08T19:38:07.532Z,60.08
2019-06-08T19:40:37.915Z,59.68
2019-06-08T19:43:07.557Z,60.24
2019-06-08T19:45:39.953Z,59.72
2019-06-08T19:48:08.271Z,59.95
2019-06-08T19:50:38.612Z,60.22
2019-06-08T19:53:07.802Z,60.48
2019-06-08T19:55:36.572Z,60.57
2019-06-08T19:58:06.320Z,60.75
2019-06-08T20:00:40.076Z,60.71
2019-06-08T20:03:07.699Z,59.88
2019-06-08T20:05:37.798Z,60.52
2019-06-08T20:08:08.059Z,61.06
2019-06-08T20:10:37.124Z,61.30
2019-06-08T20:13:07.835Z,61.37
2019-06-08T20:15:43.511Z,61.81
2019-06-08T20:18:07.045Z,62.62
2019-06-08T20:20:38.019Z,62.32
2019-06-08T20:23:09.566Z,62.72
2019-06-08T20:25:38.140Z,62.78
2019-06-08T20:28:07.973Z,63.37
2019-06-08T20:30:37.002Z,64.11
2019-06-08T20:33:08.021Z,64.85
2019-06-08T20:35:37.626Z,65.46
2019-06-08T20:38:08.345Z,65.11
2019-06-08T20:40:38.286Z,65.48
2019-06-08T20:43:07.402Z,65.53
2019-06-08T20:45:37.509Z,65.38
2019-06-08T20:48:06.559Z,65.35
2019-06-08T20:50:37.650Z,65.95
2019-06-08T20:53:08.418Z,66.50
2019-06-08T20:55:40.057Z,66.80
2019-06-08T20:58:08.052Z,67.08
2019-06-08T21:00:37.784Z,67.24
2019-06-08T21:03:08.160Z,67.08
2019-06-08T21:05:37.244Z,67.35
2019-06-08T21:08:08.194Z,67.96
2019-06-08T21:10:37.799Z,68.45
2019-06-08T21:13:07.559Z,69.36
2019-06-08T21:15:38.223Z,69.79
2019-06-08T21:18:07.931Z,69.63
2019-06-08T21:20:37.756Z,70.16
2019-06-08T21:23:08.138Z,70.12
2019-06-08T21:25:37.337Z,70.79
2019-06-08T21:28:07.839Z,70.69
2019-06-08T21:30:37.749Z,71.06
2019-06-08T21:33:08.279Z,71.41
2019-06-08T21:35:37.381Z,71.45
2019-06-08T21:38:20.235Z,71.12
2019-06-08T21:40:37.603Z,70.94
2019-06-08T21:43:08.157Z,71.18
2019-06-08T21:45:38.053Z,70.46
2019-06-08T21:48:07.582Z,70.89
2019-06-08T21:50:37.096Z,71.47
2019-06-08T21:53:07.715Z,72.98
2019-06-08T21:55:38.022Z,72.96
2019-06-08T21:58:08.015Z,73.15
2019-06-08T22:00:42.748Z,72.61
2019-06-08T22:03:08.563Z,72.41
2019-06-08T22:05:37.827Z,72.94
2019-06-08T22:08:08.028Z,73.99
2019-06-08T22:10:37.680Z,74.06
2019-06-08T22:13:08.613Z,73.93
2019-06-08T22:15:37.937Z,73.02
2019-06-08T22:18:08.025Z,72.52
2019-06-08T22:20:38.270Z,72.30
2019-06-08T22:23:07.466Z,72.17
2019-06-08T22:25:38.561Z,72.71
2019-06-08T22:28:07.354Z,73.93
2019-06-08T22:30:42.568Z,73.93
2019-06-08T22:33:06.802Z,73.04
2019-06-08T22:35:37.351Z,72.16
2019-06-08T22:38:08.389Z,71.95
2019-06-08T22:40:37.104Z,72.59
2019-06-08T22:43:08.088Z,73.14
2019-06-08T22:45:37.474Z,73.60
2019-06-08T22:48:08.266Z,74.10
2019-06-08T22:50:38.237Z,73.88
2019-06-08T22:53:08.039Z,73.58
2019-06-08T22:55:38.213Z,73.93
2019-06-08T22:58:07.765Z,73.61
2019-06-08T23:00:51.317Z,74.26
2019-06-08T23:03:08.580Z,73.66
2019-06-08T23:05:37.711Z,73.88
2019-06-08T23:08:09.357Z,73.90
2019-06-08T23:10:37.486Z,74.77
2019-06-08T23:13:08.567Z,74.68
2019-06-08T23:15:37.048Z,73.79
2019-06-08T23:18:06.806Z,74.02
2019-06-08T23:20:37.141Z,73.87
2019-06-08T23:23:08.671Z,74.61
2019-06-08T23:25:37.253Z,75.08
2019-06-08T23:28:09.660Z,75.63
2019-06-08T23:30:38.255Z,75.47
2019-06-08T23:33:11.535Z,74.71
2019-06-08T23:36:07.710Z,74.08
2019-06-08T23:38:09.450Z,73.30
2019-06-08T23:40:38.482Z,72.86
2019-06-08T23:43:08.232Z,72.41
2019-06-08T23:45:37.930Z,72.42
2019-06-08T23:48:07.043Z,72.44
2019-06-08T23:50:37.931Z,72.28
2019-06-08T23:53:09.174Z,72.09
2019-06-08T23:55:37.278Z,72.18
2019-06-08T23:58:09.488Z,72.27
